Flight Track Log - Related Links

Times and Time Zones

All times are in EDT time to prevent confusion due to time zone crossing. See the RPA3379 flight status page for this flight to view local times or setup timezone preferences in your user account.

Time Position Orientation Groundspeed Altitude Reporting Facility
EDT Latitude Longitude Course Direction KTS MPH feet Rate Location/Type
Tue 05:32:29 PM 39.9950 -82.9633 96° East 193 222 3,200  Level Indianapolis Center
Tue 05:33:42 PM 39.9400 -82.9917 202° Southwest 252 290 5,700 2,642 Climbing Indianapolis Center
Tue 05:34:00 PM 39.9667 -82.5247 90° East  Level FlightAware Approximate
Tue 05:34:43 PM 39.9275 -82.8914 99° East 285 328 9,100  Level Indianapolis Center
Tue 05:35:00 PM 39.9667 -82.4042 90° East  Level FlightAware Approximate
Tue 05:35:45 PM 39.9331 -82.7783 86° East 315 362 11,300  Level Indianapolis Center
Tue 05:36:00 PM 39.9604 -82.2841 96° East  Level FlightAware Approximate
Tue 05:36:47 PM 39.9392 -82.6547 86° East 338 389 13,600  Level Indianapolis Center
Tue 05:37:00 PM 39.9509 -82.1620 96° East  Level FlightAware Approximate
Tue 05:37:49 PM 39.9461 -82.4992 87° East 357 411 16,300  Level Indianapolis Center
Tue 05:38:51 PM 39.9533 -82.3642 86° East 370 426 18,000 1,742 Climbing Indianapolis Center
Tue 05:39:53 PM 39.9600 -82.2233 86° East 386 444 19,900 1,839 Climbing Indianapolis Center
Tue 05:40:55 PM 39.9658 -82.0797 87° East 396 456 21,800 1,902 Climbing Indianapolis Center
Tue 05:41:56 PM 39.9700 -81.9344 88° East 400 460 23,800 1,756 Climbing Indianapolis Center
Tue 05:42:58 PM 39.9800 -81.7719 85° East 407 468 25,400 1,355 Climbing Indianapolis Center
Tue 05:44:00 PM 39.9478 -81.6367 107° East 438 504 26,600 1,403 Climbing Indianapolis Center
Tue 05:45:02 PM 39.8839 -81.4575 115° Southeast 453 521 28,300 1,161 Climbing Indianapolis Center
Tue 05:46:04 PM 39.8319 -81.3111 115° Southeast 466 536 29,000 339 Climbing Indianapolis Center
Tue 05:47:06 PM 39.7747 -81.1500 115° Southeast 484 557 29,000  Level Indianapolis Center
Tue 05:48:08 PM 39.7181 -80.9878 114° Southeast 489 563 29,000  Level Indianapolis Center
Tue 05:49:10 PM 39.6617 -80.8306 115° Southeast 481 554 29,000  Level Indianapolis Center
Tue 05:50:12 PM 39.5936 -80.6419 115° Southeast 481 554 29,000  Level Indianapolis Center
Tue 05:51:14 PM 39.5364 -80.4850 115° Southeast 480 552 29,000  Level Indianapolis Center
Tue 05:52:16 PM 39.4800 -80.3292 115° Southeast 478 550 29,000  Level Indianapolis Center
Tue 05:53:18 PM 39.4225 -80.1733 115° Southeast 477 549 29,000  Level Indianapolis Center
Tue 05:54:25 PM 39.3639 -80.0103 115° Southeast 476 548 29,000  Level Washington Center
Tue 05:55:26 PM 39.3089 -79.8567 115° Southeast 476 548 29,000  Level Washington Center
Tue 05:56:26 PM 39.2856 -79.6917 100° East 461 531 29,000  Level Washington Center
Tue 05:57:27 PM 39.2722 -79.5275 96° East 461 531 29,000  Level Washington Center
Tue 05:58:27 PM 39.2608 -79.3633 95° East 461 531 29,000 -750 Level Washington Center
Tue 05:59:27 PM 39.2431 -79.1961 98° East 461 531 27,500 -1,831 Descending Washington Center
Tue 06:00:25 PM 39.2289 -79.0347 96° East 466 536 25,400 -2,034 Descending Washington Center
Tue 06:01:25 PM 39.2144 -78.8786 97° East 460 529 23,500 -1,884 Descending Washington Center
Tue 06:02:26 PM 39.1997 -78.7281 97° East 438 504 21,600 -1,785 Descending Washington Center
Tue 06:03:26 PM 39.1833 -78.5611 97° East 424 488 19,900 -1,884 Descending Washington Center
Tue 06:04:27 PM 39.1714 -78.4431 97° East 404 465 17,800 -1,412 Descending Washington Center
Tue 06:05:25 PM 39.1514 -78.3192 102° East 376 433 17,100 -353 Descending Washington Center
Tue 06:06:26 PM 39.1208 -78.1947 108° East 356 410 17,100 -738 Level Washington Center
Tue 06:07:27 PM 39.0919 -78.0789 108° East 344 396 15,600 -1,513 Descending Washington Center
Tue 06:08:25 PM 39.0589 -77.9600 110° East 349 402 14,100 -1,563 Descending Washington Center
Tue 06:09:26 PM 39.0300 -77.8389 107° East 333 383 12,500 -1,426 Descending Washington Center
Tue 06:10:27 PM 38.9814 -77.7681 131° Southeast 293 337 11,200 -1,311 Descending Washington Center
Tue 06:11:25 PM 38.9433 -77.6681 116° Southeast 288 331 9,900 -1,140 Descending Washington Center
Tue 06:12:28 PM 38.9333 -77.5500 96° East 292 336 8,900 -878 Descending Potomac TRACON
Tue 06:13:28 PM 38.9167 -77.4500 102° East 289 333 8,100 -1,100 Descending Potomac TRACON
Tue 06:14:28 PM 38.8833 -77.3667 117° Southeast 284 327 6,700 -1,050 Descending Potomac TRACON
Tue 06:15:28 PM 38.8333 -77.2833 128° Southeast 275 316 6,000 -347 Descending Potomac TRACON
Tue 06:16:29 PM 38.8000 -77.2000 117° Southeast 277 319 6,000  Level Potomac TRACON
Tue 06:17:35 PM 38.7500 -77.1167 128° Southeast 273 314 6,000  Level Potomac TRACON
Tue 06:18:29 PM 38.6833 -77.1000 169° South 260 299 6,000 -316 Level Potomac TRACON
Tue 06:19:29 PM 38.6167 -77.1000 180° South 213 245 5,400 -900 Descending Potomac TRACON
Tue 06:20:29 PM 38.6000 -77.0500 113° Southeast 202 232 4,200 -700 Descending Potomac TRACON
Tue 06:21:29 PM 38.6333 -77.0167 38° Northeast 180 207 4,000 -450 Descending Potomac TRACON
Tue 06:22:29 PM 38.6833 -77.0167 360° North 173 199 3,300 -900 Descending Potomac TRACON
Tue 06:23:29 PM 38.7333 -77.0333 345° North 169 194 2,200 -1,000 Descending Potomac TRACON
Tue 06:24:29 PM 38.7667 -77.0333 360° North 168 193 1,300 -810 Descending Potomac TRACON
Tue 06:25:35 PM 38.8167 -77.0333 360° North 125 144 500 -727 Descending Potomac TRACON

Login

Don't have an account? Register now (free) for customized features, flight alerts, and more!